sensor_id;sensor_type;location;lat;lon;timestamp;pressure;altitude;pressure_sealevel;temperature;humidity
66887;BME280;67239;51.680;5.976;2023-04-16T00:02:02;101978.38;;;8.24;88.31
66887;BME280;67239;51.680;5.976;2023-04-16T00:04:32;101979.25;;;8.25;88.34
66887;BME280;67239;51.680;5.976;2023-04-16T00:07:01;101979.25;;;8.25;88.72
66887;BME280;67239;51.680;5.976;2023-04-16T00:09:28;101981.00;;;8.28;88.93
66887;BME280;67239;51.680;5.976;2023-04-16T00:11:55;101972.25;;;8.24;89.18
66887;BME280;67239;51.680;5.976;2023-04-16T00:14:22;101976.66;;;8.23;89.21
66887;BME280;67239;51.680;5.976;2023-04-16T00:16:49;101978.38;;;8.26;89.47
66887;BME280;67239;51.680;5.976;2023-04-16T00:19:17;101979.25;;;8.27;89.47
66887;BME280;67239;51.680;5.976;2023-04-16T00:21:44;101970.50;;;8.26;89.88
66887;BME280;67239;51.680;5.976;2023-04-16T00:24:11;101974.00;;;8.25;90.49
66887;BME280;67239;51.680;5.976;2023-04-16T00:26:39;101978.38;;;8.23;90.49
66887;BME280;67239;51.680;5.976;2023-04-16T00:29:06;101972.25;;;8.21;90.48
66887;BME280;67239;51.680;5.976;2023-04-16T00:31:35;101969.63;;;8.24;91.11
66887;BME280;67239;51.680;5.976;2023-04-16T00:34:03;101973.13;;;8.20;90.88
66887;BME280;67239;51.680;5.976;2023-04-16T00:36:30;101981.91;;;8.23;90.84
66887;BME280;67239;51.680;5.976;2023-04-16T00:38:57;101975.75;;;8.24;91.47
66887;BME280;67239;51.680;5.976;2023-04-16T00:41:24;101968.75;;;8.25;91.20
66887;BME280;67239;51.680;5.976;2023-04-16T00:43:52;101973.13;;;8.26;91.35
66887;BME280;67239;51.680;5.976;2023-04-16T00:46:21;101971.38;;;8.27;91.26
66887;BME280;67239;51.680;5.976;2023-04-16T00:48:50;101979.25;;;8.30;91.14
66887;BME280;67239;51.680;5.976;2023-04-16T00:51:20;101974.00;;;8.33;91.35
66887;BME280;67239;51.680;5.976;2023-04-16T00:53:48;101985.38;;;8.33;91.18
66887;BME280;67239;51.680;5.976;2023-04-16T00:56:15;101984.50;;;8.31;91.56
66887;BME280;67239;51.680;5.976;2023-04-16T00:58:43;101983.63;;;8.32;91.73
66887;BME280;67239;51.680;5.976;2023-04-16T01:01:12;101980.13;;;8.33;91.73
66887;BME280;67239;51.680;5.976;2023-04-16T01:03:46;101984.47;;;8.36;92.47
66887;BME280;67239;51.680;5.976;2023-04-16T01:06:16;101984.50;;;8.34;91.91
66887;BME280;67239;51.680;5.976;2023-04-16T01:08:45;101975.72;;;8.35;92.14
66887;BME280;67239;51.680;5.976;2023-04-16T01:11:13;101985.34;;;8.38;92.26
66887;BME280;67239;51.680;5.976;2023-04-16T01:13:41;101974.84;;;8.35;92.21
66887;BME280;67239;51.680;5.976;2023-04-16T01:16:10;101972.22;;;8.36;92.17
66887;BME280;67239;51.680;5.976;2023-04-16T01:18:38;101985.34;;;8.38;92.38
66887;BME280;67239;51.680;5.976;2023-04-16T01:21:05;101981.84;;;8.44;92.54
66887;BME280;67239;51.680;5.976;2023-04-16T01:23:33;101986.22;;;8.40;92.57
66887;BME280;67239;51.680;5.976;2023-04-16T01:26:01;101982.72;;;8.39;92.69
66887;BME280;67239;51.680;5.976;2023-04-16T01:28:29;101976.59;;;8.44;93.13
66887;BME280;67239;51.680;5.976;2023-04-16T01:30:56;101975.72;;;8.40;93.07
66887;BME280;67239;51.680;5.976;2023-04-16T01:33:36;101974.84;;;8.41;93.11
66887;BME280;67239;51.680;5.976;2023-04-16T01:36:03;101966.06;;;8.40;93.29
66887;BME280;67239;51.680;5.976;2023-04-16T01:38:30;101974.84;;;8.38;93.54
66887;BME280;67239;51.680;5.976;2023-04-16T01:40:57;101969.59;;;8.38;93.76
66887;BME280;67239;51.680;5.976;2023-04-16T01:43:25;101974.84;;;8.38;93.57
66887;BME280;67239;51.680;5.976;2023-04-16T01:48:41;101965.22;;;8.38;93.93
66887;BME280;67239;51.680;5.976;2023-04-16T01:51:08;101983.59;;;8.40;94.08
66887;BME280;67239;51.680;5.976;2023-04-16T01:53:36;101980.97;;;8.42;94.22
66887;BME280;67239;51.680;5.976;2023-04-16T01:56:03;101973.09;;;8.40;93.91
66887;BME280;67239;51.680;5.976;2023-04-16T01:58:31;101980.97;;;8.40;94.22
66887;BME280;67239;51.680;5.976;2023-04-16T02:00:59;101978.34;;;8.42;94.44
66887;BME280;67239;51.680;5.976;2023-04-16T02:03:26;101980.09;;;8.41;94.35
66887;BME280;67239;51.680;5.976;2023-04-16T02:05:54;101974.84;;;8.41;94.26
66887;BME280;67239;51.680;5.976;2023-04-16T02:08:21;101986.22;;;8.43;94.44
66887;BME280;67239;51.680;5.976;2023-04-16T02:10:49;101986.22;;;8.43;94.61
66887;BME280;67239;51.680;5.976;2023-04-16T02:13:16;101984.47;;;8.44;94.49
66887;BME280;67239;51.680;5.976;2023-04-16T02:15:47;101990.59;;;8.43;94.56
66887;BME280;67239;51.680;5.976;2023-04-16T02:18:20;101986.22;;;8.42;94.72
66887;BME280;67239;51.680;5.976;2023-04-16T02:20:47;101979.22;;;8.39;94.52
66887;BME280;67239;51.680;5.976;2023-04-16T02:23:16;101986.22;;;8.40;94.82
66887;BME280;67239;51.680;5.976;2023-04-16T02:25:45;101977.47;;;8.43;94.79
66887;BME280;67239;51.680;5.976;2023-04-16T02:28:15;101978.34;;;8.45;94.79
66887;BME280;67239;51.680;5.976;2023-04-16T02:30:44;101987.09;;;8.44;94.80
66887;BME280;67239;51.680;5.976;2023-04-16T02:33:14;101977.47;;;8.46;95.02
66887;BME280;67239;51.680;5.976;2023-04-16T02:35:51;101973.06;;;8.46;94.75
66887;BME280;67239;51.680;5.976;2023-04-16T02:38:19;101978.34;;;8.49;95.02
66887;BME280;67239;51.680;5.976;2023-04-16T02:40:45;101981.00;;;8.48;94.92
66887;BME280;67239;51.680;5.976;2023-04-16T02:43:12;101983.63;;;8.48;95.08
66887;BME280;67239;51.680;5.976;2023-04-16T02:45:40;101986.19;;;8.46;95.18
66887;BME280;67239;51.680;5.976;2023-04-16T02:48:07;101979.22;;;8.50;95.29
66887;BME280;67239;51.680;5.976;2023-04-16T02:50:35;101978.31;;;8.46;95.15
66887;BME280;67239;51.680;5.976;2023-04-16T02:53:02;101982.75;;;8.49;95.33
66887;BME280;67239;51.680;5.976;2023-04-16T02:55:30;101979.22;;;8.47;95.44
66887;BME280;67239;51.680;5.976;2023-04-16T02:57:57;101979.22;;;8.47;95.72
66887;BME280;67239;51.680;5.976;2023-04-16T03:00:24;101985.34;;;8.46;95.79
66887;BME280;67239;51.680;5.976;2023-04-16T03:02:51;101988.84;;;8.51;95.41
66887;BME280;67239;51.680;5.976;2023-04-16T03:05:18;101987.09;;;8.47;95.58
66887;BME280;67239;51.680;5.976;2023-04-16T03:07:45;101989.72;;;8.47;95.71
66887;BME280;67239;51.680;5.976;2023-04-16T03:10:13;101987.97;;;8.46;95.56
66887;BME280;67239;51.680;5.976;2023-04-16T03:12:41;101992.34;;;8.45;95.42
66887;BME280;67239;51.680;5.976;2023-04-16T03:15:08;101990.63;;;8.47;95.53
66887;BME280;67239;51.680;5.976;2023-04-16T03:17:36;101992.34;;;8.47;95.69
66887;BME280;67239;51.680;5.976;2023-04-16T03:20:03;101997.63;;;8.48;95.57
66887;BME280;67239;51.680;5.976;2023-04-16T03:22:32;102001.13;;;8.49;95.75
66887;BME280;67239;51.680;5.976;2023-04-16T03:24:59;102002.88;;;8.50;95.57
66887;BME280;67239;51.680;5.976;2023-04-16T03:27:26;102004.63;;;8.52;95.67
66887;BME280;67239;51.680;5.976;2023-04-16T03:29:53;102005.50;;;8.51;95.58
66887;BME280;67239;51.680;5.976;2023-04-16T03:32:21;102006.38;;;8.52;95.68
66887;BME280;67239;51.680;5.976;2023-04-16T03:34:48;102001.97;;;8.51;95.82
66887;BME280;67239;51.680;5.976;2023-04-16T03:37:15;101999.34;;;8.51;95.57
66887;BME280;67239;51.680;5.976;2023-04-16T03:39:42;102001.09;;;8.52;95.51
66887;BME280;67239;51.680;5.976;2023-04-16T03:42:10;101999.34;;;8.51;95.59
66887;BME280;67239;51.680;5.976;2023-04-16T03:44:37;102001.13;;;8.53;95.73
66887;BME280;67239;51.680;5.976;2023-04-16T03:47:04;101999.34;;;8.55;95.50
66887;BME280;67239;51.680;5.976;2023-04-16T03:49:31;102004.59;;;8.59;95.38
66887;BME280;67239;51.680;5.976;2023-04-16T03:51:58;102013.38;;;8.53;95.52
66887;BME280;67239;51.680;5.976;2023-04-16T03:54:26;102007.25;;;8.51;95.49
66887;BME280;67239;51.680;5.976;2023-04-16T03:57:04;102004.63;;;8.51;95.82
66887;BME280;67239;51.680;5.976;2023-04-16T03:59:32;102014.25;;;8.52;95.47
66887;BME280;67239;51.680;5.976;2023-04-16T04:01:59;102011.63;;;8.50;95.49
66887;BME280;67239;51.680;5.976;2023-04-16T04:04:26;102012.50;;;8.51;95.46
66887;BME280;67239;51.680;5.976;2023-04-16T04:06:54;102009.00;;;8.50;95.53
66887;BME280;67239;51.680;5.976;2023-04-16T04:09:22;102013.41;;;8.51;95.59
66887;BME280;67239;51.680;5.976;2023-04-16T04:11:49;102012.50;;;8.51;95.89
66887;BME280;67239;51.680;5.976;2023-04-16T04:14:16;102009.00;;;8.52;95.77
66887;BME280;67239;51.680;5.976;2023-04-16T04:16:43;102011.63;;;8.52;95.38
66887;BME280;67239;51.680;5.976;2023-04-16T04:19:11;102002.88;;;8.53;95.77
66887;BME280;67239;51.680;5.976;2023-04-16T04:21:38;102008.13;;;8.51;95.88
66887;BME280;67239;51.680;5.976;2023-04-16T04:24:05;102011.63;;;8.53;95.76
66887;BME280;67239;51.680;5.976;2023-04-16T04:26:33;102013.41;;;8.54;95.73
66887;BME280;67239;51.680;5.976;2023-04-16T04:29:00;102013.38;;;8.53;96.05
66887;BME280;67239;51.680;5.976;2023-04-16T04:31:28;102021.25;;;8.53;95.74
66887;BME280;67239;51.680;5.976;2023-04-16T04:33:55;102027.41;;;8.55;95.99
66887;BME280;67239;51.680;5.976;2023-04-16T04:36:23;102023.00;;;8.54;96.00
66887;BME280;67239;51.680;5.976;2023-04-16T04:38:50;102023.91;;;8.54;95.81
66887;BME280;67239;51.680;5.976;2023-04-16T04:41:18;102036.16;;;8.52;95.89
66887;BME280;67239;51.680;5.976;2023-04-16T04:43:47;102036.16;;;8.51;96.25
66887;BME280;67239;51.680;5.976;2023-04-16T04:46:15;102030.03;;;8.53;96.00
66887;BME280;67239;51.680;5.976;2023-04-16T04:48:42;102032.66;;;8.52;95.96
66887;BME280;67239;51.680;5.976;2023-04-16T04:51:09;102037.06;;;8.54;96.00
66887;BME280;67239;51.680;5.976;2023-04-16T04:53:36;102046.66;;;8.54;96.02
66887;BME280;67239;51.680;5.976;2023-04-16T04:56:04;102037.91;;;8.52;96.30
66887;BME280;67239;51.680;5.976;2023-04-16T04:58:39;102045.81;;;8.50;96.33
66887;BME280;67239;51.680;5.976;2023-04-16T05:01:07;102041.44;;;8.52;96.61
66887;BME280;67239;51.680;5.976;2023-04-16T05:03:34;102047.53;;;8.50;96.55
66887;BME280;67239;51.680;5.976;2023-04-16T05:06:01;102044.91;;;8.50;96.67
66887;BME280;67239;51.680;5.976;2023-04-16T05:08:28;102051.94;;;8.52;96.77
66887;BME280;67239;51.680;5.976;2023-04-16T05:10:55;102053.69;;;8.53;96.87
66887;BME280;67239;51.680;5.976;2023-04-16T05:13:22;102055.44;;;8.51;97.00
66887;BME280;67239;51.680;5.976;2023-04-16T05:15:50;102065.06;;;8.54;97.20
66887;BME280;67239;51.680;5.976;2023-04-16T05:18:17;102058.94;;;8.53;97.31
66887;BME280;67239;51.680;5.976;2023-04-16T05:20:44;102059.81;;;8.57;97.00
66887;BME280;67239;51.680;5.976;2023-04-16T05:23:11;102065.94;;;8.59;97.25
66887;BME280;67239;51.680;5.976;2023-04-16T05:25:38;102053.66;;;8.60;97.14
66887;BME280;67239;51.680;5.976;2023-04-16T05:28:05;102062.41;;;8.60;96.90
66887;BME280;67239;51.680;5.976;2023-04-16T05:30:32;102062.44;;;8.59;97.29
66887;BME280;67239;51.680;5.976;2023-04-16T05:32:59;102063.31;;;8.59;97.66
66887;BME280;67239;51.680;5.976;2023-04-16T05:35:26;102072.06;;;8.60;97.41
66887;BME280;67239;51.680;5.976;2023-04-16T05:37:53;102064.19;;;8.60;97.43
66887;BME280;67239;51.680;5.976;2023-04-16T05:40:21;102069.44;;;8.63;97.15
66887;BME280;67239;51.680;5.976;2023-04-16T05:42:48;102072.06;;;8.64;97.35
66887;BME280;67239;51.680;5.976;2023-04-16T05:45:15;102062.41;;;8.65;97.38
66887;BME280;67239;51.680;5.976;2023-04-16T05:47:42;102072.91;;;8.68;97.29
66887;BME280;67239;51.680;5.976;2023-04-16T05:50:09;102070.28;;;8.71;97.21
66887;BME280;67239;51.680;5.976;2023-04-16T05:52:37;102068.53;;;8.72;97.35
66887;BME280;67239;51.680;5.976;2023-04-16T05:55:04;102067.66;;;8.71;97.47
66887;BME280;67239;51.680;5.976;2023-04-16T05:57:32;102070.28;;;8.71;97.12
66887;BME280;67239;51.680;5.976;2023-04-16T05:59:59;102072.03;;;8.72;97.38
66887;BME280;67239;51.680;5.976;2023-04-16T06:02:26;102072.00;;;8.78;97.32
66887;BME280;67239;51.680;5.976;2023-04-16T06:04:56;102085.16;;;8.84;97.30
66887;BME280;67239;51.680;5.976;2023-04-16T06:07:23;102078.97;;;8.93;96.15
66887;BME280;67239;51.680;5.976;2023-04-16T06:09:50;102079.84;;;8.97;96.06
66887;BME280;67239;51.680;5.976;2023-04-16T06:12:17;102082.47;;;8.97;96.09
66887;BME280;67239;51.680;5.976;2023-04-16T06:14:44;102085.94;;;9.04;96.10
66887;BME280;67239;51.680;5.976;2023-04-16T06:17:11;102091.19;;;9.08;95.91
66887;BME280;67239;51.680;5.976;2023-04-16T06:19:38;102088.53;;;9.16;95.68
66887;BME280;67239;51.680;5.976;2023-04-16T06:22:05;102094.66;;;9.20;94.81
66887;BME280;67239;51.680;5.976;2023-04-16T06:24:32;102096.41;;;9.17;94.52
66887;BME280;67239;51.680;5.976;2023-04-16T06:26:59;102094.66;;;9.16;94.63
66887;BME280;67239;51.680;5.976;2023-04-16T06:29:26;102097.31;;;9.13;94.99
66887;BME280;67239;51.680;5.976;2023-04-16T06:32:07;102107.81;;;9.18;95.01
66887;BME280;67239;51.680;5.976;2023-04-16T06:34:34;102109.59;;;9.19;94.49
66887;BME280;67239;51.680;5.976;2023-04-16T06:37:01;102116.56;;;9.25;94.33
66887;BME280;67239;51.680;5.976;2023-04-16T06:39:29;102117.44;;;9.21;93.89
66887;BME280;67239;51.680;5.976;2023-04-16T06:41:56;102125.38;;;9.16;94.24
66887;BME280;67239;51.680;5.976;2023-04-16T06:44:23;102128.00;;;9.13;94.32
66887;BME280;67239;51.680;5.976;2023-04-16T06:46:50;102130.66;;;9.11;94.67
66887;BME280;67239;51.680;5.976;2023-04-16T06:49:17;102132.41;;;9.09;94.39
66887;BME280;67239;51.680;5.976;2023-04-16T06:51:44;102128.00;;;9.11;94.78
66887;BME280;67239;51.680;5.976;2023-04-16T06:54:11;102125.41;;;9.05;94.94
66887;BME280;67239;51.680;5.976;2023-04-16T06:56:38;102134.16;;;9.09;94.97
66887;BME280;67239;51.680;5.976;2023-04-16T06:59:06;102142.94;;;9.06;95.02
66887;BME280;67239;51.680;5.976;2023-04-16T07:01:33;102141.19;;;9.04;95.15
66887;BME280;67239;51.680;5.976;2023-04-16T07:04:01;102137.66;;;9.06;94.98
66887;BME280;67239;51.680;5.976;2023-04-16T07:06:29;102142.06;;;9.06;94.81
66887;BME280;67239;51.680;5.976;2023-04-16T07:08:57;102143.81;;;9.07;94.72
66887;BME280;67239;51.680;5.976;2023-04-16T07:11:24;102152.59;;;9.06;95.19
66887;BME280;67239;51.680;5.976;2023-04-16T07:13:52;102141.16;;;9.08;94.96
66887;BME280;67239;51.680;5.976;2023-04-16T07:16:20;102150.81;;;9.14;94.86
66887;BME280;67239;51.680;5.976;2023-04-16T07:18:48;102155.16;;;9.21;94.36
66887;BME280;67239;51.680;5.976;2023-04-16T07:21:15;102150.75;;;9.23;94.31
66887;BME280;67239;51.680;5.976;2023-04-16T07:23:42;102159.53;;;9.30;94.18
66887;BME280;67239;51.680;5.976;2023-04-16T07:26:09;102152.50;;;9.32;93.62
66887;BME280;67239;51.680;5.976;2023-04-16T07:28:37;102157.75;;;9.35;93.46
66887;BME280;67239;51.680;5.976;2023-04-16T07:31:04;102158.63;;;9.39;93.50
66887;BME280;67239;51.680;5.976;2023-04-16T07:33:31;102164.75;;;9.39;93.28
66887;BME280;67239;51.680;5.976;2023-04-16T07:35:58;102163.88;;;9.39;93.14
66887;BME280;67239;51.680;5.976;2023-04-16T07:38:25;102163.81;;;9.46;92.39
66887;BME280;67239;51.680;5.976;2023-04-16T07:40:54;102169.09;;;9.46;92.51
66887;BME280;67239;51.680;5.976;2023-04-16T07:43:22;102169.97;;;9.50;92.21
66887;BME280;67239;51.680;5.976;2023-04-16T07:45:49;102173.44;;;9.57;92.50
66887;BME280;67239;51.680;5.976;2023-04-16T07:48:16;102175.16;;;9.69;91.77
66887;BME280;67239;51.680;5.976;2023-04-16T07:50:43;102181.28;;;9.72;91.28
66887;BME280;67239;51.680;5.976;2023-04-16T07:53:10;102173.34;;;9.74;91.55
66887;BME280;67239;51.680;5.976;2023-04-16T07:55:37;102176.84;;;9.76;90.94
66887;BME280;67239;51.680;5.976;2023-04-16T07:58:04;102181.22;;;9.80;90.78
66887;BME280;67239;51.680;5.976;2023-04-16T08:00:33;102183.75;;;9.97;89.82
66887;BME280;67239;51.680;5.976;2023-04-16T08:03:00;102183.66;;;10.16;89.08
66887;BME280;67239;51.680;5.976;2023-04-16T08:05:28;102179.97;;;10.37;88.25
66887;BME280;67239;51.680;5.976;2023-04-16T08:07:55;102194.00;;;10.47;87.61
66887;BME280;67239;51.680;5.976;2023-04-16T08:10:22;102197.47;;;10.50;87.22
66887;BME280;67239;51.680;5.976;2023-04-16T08:12:49;102200.81;;;10.69;86.17
66887;BME280;67239;51.680;5.976;2023-04-16T08:15:19;102203.31;;;10.85;85.78
66887;BME280;67239;51.680;5.976;2023-04-16T08:17:46;102199.72;;;10.92;85.19
66887;BME280;67239;51.680;5.976;2023-04-16T08:20:13;102212.06;;;10.88;85.46
66887;BME280;67239;51.680;5.976;2023-04-16T08:22:45;102205.06;;;10.86;85.42
66887;BME280;67239;51.680;5.976;2023-04-16T08:25:13;102205.97;;;10.82;85.26
66887;BME280;67239;51.680;5.976;2023-04-16T08:27:40;102210.34;;;10.83;84.47
66887;BME280;67239;51.680;5.976;2023-04-16T08:30:07;102216.50;;;10.85;83.80
66887;BME280;67239;51.680;5.976;2023-04-16T08:32:34;102216.47;;;10.86;84.14
66887;BME280;67239;51.680;5.976;2023-04-16T08:35:01;102213.66;;;11.03;84.28
66887;BME280;67239;51.680;5.976;2023-04-16T08:37:28;102223.19;;;11.18;83.28
66887;BME280;67239;51.680;5.976;2023-04-16T08:39:55;102224.97;;;11.16;82.79
66887;BME280;67239;51.680;5.976;2023-04-16T08:42:32;102232.09;;;11.08;82.40
66887;BME280;67239;51.680;5.976;2023-04-16T08:45:15;102229.44;;;11.10;82.41
66887;BME280;67239;51.680;5.976;2023-04-16T08:47:50;102231.84;;;11.33;82.89
66887;BME280;67239;51.680;5.976;2023-04-16T08:50:23;102232.50;;;11.52;81.71
66887;BME280;67239;51.680;5.976;2023-04-16T08:53:03;102238.53;;;11.60;81.44
66887;BME280;67239;51.680;5.976;2023-04-16T08:55:40;102233.25;;;11.60;79.40
66887;BME280;67239;51.680;5.976;2023-04-16T08:58:21;102239.59;;;11.45;80.04
66887;BME280;67239;51.680;5.976;2023-04-16T09:00:49;102246.69;;;11.42;80.24
66887;BME280;67239;51.680;5.976;2023-04-16T09:03:16;102249.44;;;11.32;80.19
66887;BME280;67239;51.680;5.976;2023-04-16T09:05:48;102246.84;;;11.28;80.57
66887;BME280;67239;51.680;5.976;2023-04-16T09:08:16;102248.69;;;11.23;80.32
66887;BME280;67239;51.680;5.976;2023-04-16T09:10:43;102246.03;;;11.23;80.92
66887;BME280;67239;51.680;5.976;2023-04-16T09:13:12;102246.81;;;11.32;81.41
66887;BME280;67239;51.680;5.976;2023-04-16T09:15:42;102245.75;;;11.49;80.45
66887;BME280;67239;51.680;5.976;2023-04-16T09:18:10;102247.47;;;11.50;79.98
66887;BME280;67239;51.680;5.976;2023-04-16T09:20:38;102250.09;;;11.53;80.17
66887;BME280;67239;51.680;5.976;2023-04-16T09:23:05;102248.41;;;11.49;80.18
66887;BME280;67239;51.680;5.976;2023-04-16T09:25:32;102252.78;;;11.48;80.04
66887;BME280;67239;51.680;5.976;2023-04-16T09:28:04;102254.56;;;11.48;79.47
66887;BME280;67239;51.680;5.976;2023-04-16T09:30:31;102251.91;;;11.46;80.25
66887;BME280;67239;51.680;5.976;2023-04-16T09:35:45;102265.03;;;11.57;79.93
66887;BME280;67239;51.680;5.976;2023-04-16T09:38:14;102260.41;;;11.72;79.21
66887;BME280;67239;51.680;5.976;2023-04-16T09:40:41;102256.81;;;11.80;78.55
66887;BME280;67239;51.680;5.976;2023-04-16T09:43:14;102259.25;;;11.98;77.61
66887;BME280;67239;51.680;5.976;2023-04-16T09:45:52;102267.03;;;12.08;77.81
66887;BME280;67239;51.680;5.976;2023-04-16T09:48:30;102261.53;;;12.24;76.75
66887;BME280;67239;51.680;5.976;2023-04-16T09:50:59;102261.31;;;12.38;76.57
66887;BME280;67239;51.680;5.976;2023-04-16T09:53:28;102257.53;;;12.56;75.63
66887;BME280;67239;51.680;5.976;2023-04-16T09:55:57;102264.28;;;12.76;74.63
66887;BME280;67239;51.680;5.976;2023-04-16T09:58:26;102264.56;;;13.09;73.30
66887;BME280;67239;51.680;5.976;2023-04-16T10:00:55;102257.81;;;13.41;73.33
66887;BME280;67239;51.680;5.976;2023-04-16T10:03:31;102262.47;;;13.73;72.25
66887;BME280;67239;51.680;5.976;2023-04-16T10:08:51;102266.59;;;13.88;71.11
66887;BME280;67239;51.680;5.976;2023-04-16T10:11:19;102265.63;;;13.91;70.03
66887;BME280;67239;51.680;5.976;2023-04-16T10:13:47;102269.00;;;13.99;70.38
66887;BME280;67239;51.680;5.976;2023-04-16T10:16:14;102259.88;;;14.12;68.34
66887;BME280;67239;51.680;5.976;2023-04-16T10:18:44;102264.31;;;14.10;68.54
66887;BME280;67239;51.680;5.976;2023-04-16T10:21:11;102267.13;;;14.03;68.44
66887;BME280;67239;51.680;5.976;2023-04-16T10:23:38;102256.44;;;14.07;68.67
66887;BME280;67239;51.680;5.976;2023-04-16T10:26:06;102264.16;;;14.18;68.56
66887;BME280;67239;51.680;5.976;2023-04-16T10:28:34;102263.94;;;14.27;68.74
66887;BME280;67239;51.680;5.976;2023-04-16T10:31:07;102255.75;;;14.37;68.27
66887;BME280;67239;51.680;5.976;2023-04-16T10:33:41;102264.63;;;14.36;66.75
66887;BME280;67239;51.680;5.976;2023-04-16T10:36:21;102269.13;;;14.32;66.71
66887;BME280;67239;51.680;5.976;2023-04-16T10:38:50;102264.88;;;14.63;66.64
66887;BME280;67239;51.680;5.976;2023-04-16T10:41:19;102263.56;;;14.81;66.34
66887;BME280;67239;51.680;5.976;2023-04-16T10:43:48;102265.03;;;14.93;65.62
66887;BME280;67239;51.680;5.976;2023-04-16T10:46:33;102260.31;;;15.04;63.96
66887;BME280;67239;51.680;5.976;2023-04-16T10:49:15;102255.19;;;15.29;63.26
66887;BME280;67239;51.680;5.976;2023-04-16T10:54:26;102264.97;;;15.29;63.08
66887;BME280;67239;51.680;5.976;2023-04-16T10:56:56;102254.63;;;15.18;63.57
66887;BME280;67239;51.680;5.976;2023-04-16T10:59:30;102255.72;;;15.11;64.23
66887;BME280;67239;51.680;5.976;2023-04-16T11:02:00;102245.72;;;15.20;63.40
66887;BME280;67239;51.680;5.976;2023-04-16T11:04:37;102247.28;;;15.59;63.90
66887;BME280;67239;51.680;5.976;2023-04-16T11:09:57;102249.69;;;15.98;60.98
66887;BME280;67239;51.680;5.976;2023-04-16T11:12:44;102247.22;;;15.92;59.48
66887;BME280;67239;51.680;5.976;2023-04-16T11:15:14;102241.06;;;15.90;58.98
66887;BME280;67239;51.680;5.976;2023-04-16T11:17:43;102244.63;;;15.91;57.75
66887;BME280;67239;51.680;5.976;2023-04-16T11:22:48;102250.81;;;15.60;59.58
66887;BME280;67239;51.680;5.976;2023-04-16T11:25:29;102244.34;;;15.68;58.55
66887;BME280;67239;51.680;5.976;2023-04-16T11:27:57;102241.53;;;15.75;58.84
66887;BME280;67239;51.680;5.976;2023-04-16T11:30:32;102232.78;;;16.01;59.20
66887;BME280;67239;51.680;5.976;2023-04-16T11:33:10;102231.81;;;16.32;57.49
66887;BME280;67239;51.680;5.976;2023-04-16T11:35:42;102230.69;;;16.39;57.21
66887;BME280;67239;51.680;5.976;2023-04-16T11:38:09;102231.97;;;16.27;57.77
66887;BME280;67239;51.680;5.976;2023-04-16T11:40:36;102229.25;;;16.29;58.05
66887;BME280;67239;51.680;5.976;2023-04-16T11:43:14;102234.34;;;16.35;57.68
66887;BME280;67239;51.680;5.976;2023-04-16T11:45:58;102243.75;;;16.19;58.33
66887;BME280;67239;51.680;5.976;2023-04-16T11:48:46;102243.44;;;16.01;59.04
66887;BME280;67239;51.680;5.976;2023-04-16T11:51:21;102237.53;;;16.20;58.50
66887;BME280;67239;51.680;5.976;2023-04-16T11:53:50;102242.41;;;16.34;58.06
66887;BME280;67239;51.680;5.976;2023-04-16T11:59:09;102237.28;;;15.99;58.84
66887;BME280;67239;51.680;5.976;2023-04-16T12:01:48;102242.34;;;15.77;59.61
66887;BME280;67239;51.680;5.976;2023-04-16T12:04:19;102240.63;;;15.74;60.19
66887;BME280;67239;51.680;5.976;2023-04-16T12:07:10;102241.47;;;15.76;60.18
66887;BME280;67239;51.680;5.976;2023-04-16T12:09:42;102250.56;;;15.69;61.03
66887;BME280;67239;51.680;5.976;2023-04-16T12:12:30;102253.84;;;15.77;60.53
66887;BME280;67239;51.680;5.976;2023-04-16T12:14:59;102250.31;;;15.77;60.17
66887;BME280;67239;51.680;5.976;2023-04-16T12:17:31;102253.97;;;15.73;59.73
66887;BME280;67239;51.680;5.976;2023-04-16T12:20:01;102256.69;;;15.71;60.75
66887;BME280;67239;51.680;5.976;2023-04-16T12:22:35;102261.00;;;15.75;59.59
66887;BME280;67239;51.680;5.976;2023-04-16T12:25:06;102263.09;;;15.64;60.61
66887;BME280;67239;51.680;5.976;2023-04-16T12:27:43;102268.09;;;15.43;60.91
66887;BME280;67239;51.680;5.976;2023-04-16T12:30:22;102262.59;;;15.18;62.02
66887;BME280;67239;51.680;5.976;2023-04-16T12:33:14;102269.41;;;14.95;61.93
66887;BME280;67239;51.680;5.976;2023-04-16T12:35:42;102269.03;;;14.74;62.24
66887;BME280;67239;51.680;5.976;2023-04-16T12:38:11;102266.50;;;14.70;62.94
66887;BME280;67239;51.680;5.976;2023-04-16T12:40:38;102274.63;;;14.60;63.41
66887;BME280;67239;51.680;5.976;2023-04-16T12:43:05;102263.38;;;14.51;63.59
66887;BME280;67239;51.680;5.976;2023-04-16T12:45:32;102267.13;;;14.42;64.53
66887;BME280;67239;51.680;5.976;2023-04-16T12:47:59;102260.34;;;14.30;64.92
66887;BME280;67239;51.680;5.976;2023-04-16T12:50:26;102272.00;;;14.23;65.85
66887;BME280;67239;51.680;5.976;2023-04-16T12:52:54;102265.97;;;14.16;66.69
66887;BME280;67239;51.680;5.976;2023-04-16T12:55:23;102268.63;;;14.14;67.14
66887;BME280;67239;51.680;5.976;2023-04-16T12:57:51;102272.31;;;14.09;67.43
66887;BME280;67239;51.680;5.976;2023-04-16T13:00:21;102275.03;;;14.06;67.61
66887;BME280;67239;51.680;5.976;2023-04-16T13:02:48;102274.19;;;14.04;67.18
66887;BME280;67239;51.680;5.976;2023-04-16T13:05:16;102263.78;;;13.94;67.71
66887;BME280;67239;51.680;5.976;2023-04-16T13:07:45;102268.31;;;13.89;68.46
66887;BME280;67239;51.680;5.976;2023-04-16T13:10:12;102270.06;;;13.90;68.79
66887;BME280;67239;51.680;5.976;2023-04-16T13:12:39;102268.25;;;13.92;68.36
66887;BME280;67239;51.680;5.976;2023-04-16T13:15:07;102275.25;;;13.96;67.90
66887;BME280;67239;51.680;5.976;2023-04-16T13:17:34;102259.28;;;13.98;67.93
66887;BME280;67239;51.680;5.976;2023-04-16T13:20:02;102265.34;;;14.05;68.08
66887;BME280;67239;51.680;5.976;2023-04-16T13:22:29;102267.09;;;14.04;67.59
66887;BME280;67239;51.680;5.976;2023-04-16T13:24:56;102272.47;;;14.01;67.75